.
WxDataArchive / Data Records for 2012-10-20
2012-10-19 October 2012 2012-10-21

Data Records for Saturday, 20 October 2012

Time	Temp	Chill	HIndex	Humid	Dewpt	 Wind 	HiWind	WindDir	Rain 	Barom 
-----	----	-----	------	-----	-----	------	------	-------	-----	----- 
00:00	45.7	45.7	45.7	92	43.5	1	3	248	0.00	29.623 
00:05	45.7	45.7	45.7	92	43.5	0	1	248	0.00	29.623 
00:10	45.7	45.7	45.7	92	43.5	0	3	248	0.00	29.623 
00:15	45.7	45.7	45.7	92	43.5	0	2	248	0.00	29.622 
00:20	45.7	45.7	45.7	92	43.5	1	4	248	0.00	29.622 
00:25	45.7	45.7	45.7	92	43.5	0	2	248	0.00	29.622 
00:30	45.7	45.7	45.7	92	43.5	0	3	248	0.00	29.623 
00:35	45.5	45.5	45.5	92	43.3	0	3	248	0.00	29.623 
00:40	45.5	45.5	45.5	92	43.3	0	3	248	0.00	29.623 
00:45	45.5	45.5	45.5	92	43.3	1	3	248	0.00	29.622 
00:50	45.5	45.5	45.5	92	43.3	0	3	248	0.00	29.622 
00:55	45.5	45.5	45.5	92	43.3	1	3	248	0.00	29.622 
01:00	45.5	45.5	45.5	91	43.0	0	3	248	0.00	29.626 
01:05	45.5	45.5	45.5	92	43.3	0	2	248	0.00	29.626 
01:10	45.5	45.5	45.5	91	43.0	0	2	248	0.00	29.626 
01:15	45.5	45.5	45.5	91	43.0	0	2	248	0.00	29.628 
01:20	45.5	45.5	45.5	91	43.0	0	2	248	0.00	29.628 
01:25	45.7	45.7	45.7	91	43.2	0	1	248	0.00	29.628 
01:30	45.7	45.7	45.7	91	43.2	0	1	248	0.00	29.628 
01:35	45.7	45.7	45.7	91	43.2	0	2	248	0.00	29.628 
01:40	45.7	45.7	45.7	91	43.2	0	2	248	0.00	29.628 
01:45	45.7	45.7	45.7	91	43.2	0	3	270	0.00	29.630 
01:50	45.7	45.7	45.7	91	43.2	1	3	270	0.00	29.630 
01:55	45.7	45.7	45.7	91	43.2	0	3	248	0.00	29.630 
02:00	45.7	45.7	45.7	90	42.9	0	1	248	0.00	29.631 
02:05	45.7	45.7	45.7	90	42.9	0	2	248	0.00	29.631 
02:10	45.7	45.7	45.7	90	42.9	0	1	248	0.00	29.631 
02:15	45.7	45.7	45.7	90	42.9	0	3	248	0.00	29.632 
02:20	45.7	45.7	45.7	90	42.9	1	4	248	0.00	29.632 
02:25	45.8	45.8	45.8	90	43.0	0	2	248	0.00	29.632 
02:30	45.8	45.8	45.8	90	43.0	1	4	248	0.00	29.636 
02:35	45.8	45.8	45.8	90	43.0	1	3	248	0.00	29.636 
02:40	45.8	45.8	45.8	90	43.0	0	2	315	0.00	29.636 
02:45	45.8	45.8	45.8	90	43.0	1	4	248	0.00	29.641 
02:50	45.7	45.7	45.7	90	42.9	1	5	248	0.00	29.641 
02:55	45.7	45.7	45.7	90	42.9	0	2	248	0.00	29.641 
03:00	45.7	45.7	45.7	89	42.6	0	1	270	0.00	29.642 
03:05	45.7	45.7	45.7	89	42.6	0	2	270	0.00	29.642 
03:10	45.5	45.5	45.5	89	42.4	0	2	270	0.00	29.642 
03:15	45.4	45.4	45.4	89	42.3	1	5	292	0.00	29.644 
03:20	45.4	45.4	45.4	89	42.3	0	2	292	0.00	29.644 
03:25	45.2	45.2	45.2	89	42.2	0	1	292	0.00	29.644 
03:30	45.2	45.2	45.2	89	42.2	0	2	292	0.00	29.649 
03:35	45.2	45.2	45.2	89	42.2	0	1	292	0.00	29.649 
03:40	45.2	45.2	45.2	89	42.2	0	2	292	0.00	29.649 
03:45	45.4	45.4	45.4	89	42.3	0	3	292	0.00	29.651 
03:50	45.4	45.4	45.4	89	42.3	1	3	248	0.00	29.651 
03:55	45.4	45.4	45.4	88	42.1	1	5	248	0.00	29.651 
04:00	45.4	45.4	45.4	88	42.1	1	3	248	0.00	29.653 
04:05	45.4	45.4	45.4	88	42.1	1	3	248	0.00	29.653 
04:10	45.4	45.4	45.4	88	42.1	1	3	248	0.00	29.653 
04:15	45.4	45.4	45.4	88	42.1	1	4	248	0.00	29.658 
04:20	45.4	45.4	45.4	88	42.1	0	3	248	0.00	29.658 
04:25	45.2	45.2	45.2	88	41.9	1	3	248	0.00	29.658 
04:30	45.2	45.2	45.2	87	41.6	1	4	248	0.00	29.658 
04:35	45.1	45.1	45.1	87	41.5	0	3	248	0.00	29.658 
04:40	45.1	45.1	45.1	87	41.5	0	2	248	0.00	29.658 
04:45	45.1	45.1	45.1	88	41.8	0	3	248	0.00	29.661 
04:50	45.1	45.1	45.1	87	41.5	0	3	248	0.00	29.661 
04:55	45.1	45.1	45.1	88	41.8	0	2	248	0.00	29.661 
05:00	45.1	45.1	45.1	88	41.8	0	1	248	0.00	29.664 
05:05	45.1	45.1	45.1	88	41.8	1	3	248	0.00	29.664 
05:10	45.1	45.1	45.1	88	41.8	0	3	248	0.00	29.664 
05:15	45.1	45.1	45.1	88	41.8	0	4	248	0.00	29.667 
05:20	45.1	45.1	45.1	88	41.8	1	4	248	0.00	29.667 
05:25	45.1	45.1	45.1	88	41.8	0	2	248	0.00	29.667 
05:30	45.1	45.1	45.1	87	41.5	1	4	248	0.00	29.674 
05:35	44.9	44.9	44.9	87	41.3	1	2	248	0.00	29.674 
05:40	44.9	44.9	44.9	87	41.3	0	2	248	0.00	29.674 
05:45	44.9	44.9	44.9	88	41.6	1	4	248	0.00	29.674 
05:50	44.9	44.9	44.9	88	41.6	1	4	270	0.00	29.674 
05:55	44.8	44.8	44.8	88	41.5	1	5	248	0.00	29.674 
06:00	44.8	44.8	44.8	88	41.5	1	4	270	0.00	29.682 
06:05	44.8	44.8	44.8	88	41.5	1	2	270	0.00	29.682 
06:10	44.8	44.8	44.8	88	41.5	1	4	248	0.00	29.682 
06:15	44.8	44.8	44.8	88	41.5	1	4	248	0.00	29.684 
06:20	44.9	44.9	44.9	88	41.6	1	2	270	0.00	29.684 
06:25	44.9	44.9	44.9	88	41.6	1	3	270	0.00	29.684 
06:30	44.9	44.9	44.9	88	41.6	1	4	248	0.00	29.684 
06:35	44.9	44.9	44.9	88	41.6	1	3	248	0.00	29.684 
06:40	44.9	44.9	44.9	88	41.6	1	4	248	0.00	29.684 
06:45	44.9	44.9	44.9	88	41.6	0	2	248	0.00	29.690 
06:50	44.9	44.9	44.9	88	41.6	1	3	248	0.00	29.690 
06:55	44.8	44.8	44.8	88	41.5	1	4	248	0.00	29.690 
07:00	44.8	44.8	44.8	88	41.5	1	3	270	0.00	29.696 
07:05	44.8	44.8	44.8	88	41.5	1	2	248	0.00	29.696 
07:10	44.6	44.6	44.6	88	41.3	1	4	248	0.00	29.696 
07:15	44.6	44.6	44.6	88	41.3	0	2	248	0.00	29.700 
07:20	44.6	44.6	44.6	88	41.3	1	5	248	0.00	29.700 
07:25	44.5	44.5	44.5	88	41.2	0	2	248	0.00	29.700 
07:30	44.5	44.5	44.5	88	41.2	1	3	248	0.00	29.707 
07:35	44.5	44.5	44.5	88	41.2	0	2	248	0.00	29.707 
07:40	44.3	44.3	44.3	88	41.0	1	4	248	0.00	29.707 
07:45	44.2	44.2	44.2	89	41.2	1	4	248	0.00	29.704 
07:50	44.2	44.2	44.2	89	41.2	1	3	248	0.00	29.704 
07:55	44.2	44.2	44.2	89	41.2	1	2	248	0.00	29.704 
08:00	44.1	44.1	44.1	89	41.1	0	1	248	0.00	29.709 
08:05	44.1	44.1	44.1	89	41.1	1	5	248	0.00	29.709 
08:10	43.9	43.9	43.9	89	40.9	0	2	248	0.00	29.709 
08:15	43.9	43.9	43.9	89	40.9	1	3	248	0.00	29.714 
08:20	43.9	43.9	43.9	89	40.9	0	3	248	0.00	29.714 
08:25	43.9	43.9	43.9	90	41.2	1	3	270	0.00	29.714 
08:30	44.1	44.1	44.1	90	41.4	1	7	270	0.00	29.721 
08:35	44.1	44.1	44.1	90	41.4	1	3	270	0.00	29.721 
08:40	44.2	44.2	44.2	90	41.5	1	4	270	0.00	29.721 
08:45	44.2	44.2	44.2	89	41.2	0	3	270	0.00	29.730 
08:50	44.3	44.3	44.3	89	41.3	0	2	270	0.00	29.730 
08:55	44.5	44.5	44.5	89	41.5	1	3	270	0.00	29.730 
09:00	44.5	44.5	44.5	89	41.5	1	4	248	0.00	29.732 
09:05	44.6	44.6	44.6	89	41.6	1	5	248	0.00	29.732 
09:10	44.8	44.8	44.8	88	41.5	1	5	270	0.00	29.732 
09:15	44.6	44.6	44.6	88	41.3	2	4	248	0.00	29.739 
09:20	44.8	44.8	44.8	88	41.5	1	4	248	0.00	29.739 
09:25	45.1	45.1	45.1	88	41.8	1	3	270	0.00	29.739 
09:30	45.2	45.2	45.2	87	41.6	2	4	270	0.00	29.746 
09:35	45.5	45.5	45.5	87	41.9	2	6	270	0.00	29.746 
09:40	45.5	45.5	45.5	86	41.6	2	4	248	0.00	29.746 
09:45	45.5	45.5	45.5	86	41.6	2	4	248	0.00	29.746 
09:50	45.7	45.7	45.7	86	41.8	1	3	248	0.00	29.746 
09:55	45.8	45.8	45.8	86	41.9	2	5	248	0.00	29.746 
10:00	45.8	45.8	45.8	85	41.6	2	4	248	0.00	29.747 
10:05	45.7	45.7	45.7	85	41.5	1	4	248	0.00	29.747 
10:10	45.7	45.7	45.7	85	41.5	2	4	248	0.00	29.747 
10:15	46.2	46.2	46.2	85	41.9	1	5	225	0.00	29.758 
10:20	46.5	46.5	46.5	84	41.9	2	5	248	0.00	29.758 
10:25	46.5	46.5	46.5	84	41.9	2	5	270	0.00	29.758 
10:30	46.7	46.7	46.7	83	41.8	2	4	248	0.00	29.764 
10:35	46.8	46.8	46.8	84	42.2	1	4	270	0.00	29.764 
10:40	47.3	47.3	47.3	84	42.7	2	5	292	0.00	29.764 
10:45	47.7	47.7	47.7	83	42.8	1	4	248	0.00	29.762 
10:50	48.2	48.2	48.2	81	42.6	2	7	248	0.00	29.762 
10:55	47.7	47.7	47.7	80	41.8	3	5	248	0.00	29.762 
11:00	47.4	47.4	47.4	81	41.9	2	4	248	0.00	29.774 
11:05	47.3	47.3	47.3	81	41.8	3	6	270	0.00	29.774 
11:10	47.4	47.4	47.4	82	42.2	2	6	248	0.00	29.774 
11:15	47.4	47.4	47.4	82	42.2	2	4	225	0.00	29.777 
11:20	47.4	47.4	47.4	81	41.9	2	6	248	0.00	29.777 
11:25	47.6	47.6	47.6	81	42.1	2	5	248	0.00	29.777 
11:30	47.7	47.7	47.7	81	42.2	2	5	270	0.00	29.777 
11:35	47.9	47.9	47.9	81	42.4	1	4	270	0.00	29.777 
11:40	48.0	48.0	48.0	81	42.5	2	4	270	0.00	29.777 
11:45	48.2	48.2	48.2	80	42.3	2	6	270	0.00	29.784 
11:50	48.3	48.3	48.3	80	42.4	2	5	270	0.01	29.784 
11:55	48.5	48.5	48.5	80	42.6	2	4	270	0.00	29.784 
12:00	48.6	48.6	48.6	79	42.4	2	5	248	0.00	29.788 
12:05	48.5	48.5	48.5	79	42.3	2	6	248	0.00	29.788 
12:10	49.2	49.2	49.2	79	43.0	2	9	248	0.00	29.788 
12:15	49.4	49.4	49.4	77	42.5	2	6	248	0.00	29.790 
12:20	49.6	49.6	49.6	77	42.7	2	5	270	0.00	29.790 
12:25	49.9	49.9	49.9	77	43.0	2	4	248	0.00	29.790 
12:30	50.1	50.1	50.1	76	42.8	2	7	270	0.00	29.789 
12:35	50.4	50.4	50.4	76	43.1	2	6	270	0.00	29.789 
12:40	50.8	50.8	50.8	75	43.2	2	5	248	0.00	29.789 
12:45	51.1	51.1	51.1	74	43.1	2	5	248	0.00	29.792 
12:50	51.0	51.0	51.0	74	43.0	2	5	248	0.00	29.792 
12:55	50.8	50.8	50.8	74	42.8	2	9	270	0.00	29.792 
13:00	51.0	51.0	51.0	73	42.7	2	6	248	0.00	29.792 
13:05	51.3	51.3	51.3	75	43.6	2	4	248	0.00	29.792 
13:10	51.3	51.3	51.3	73	42.9	2	4	292	0.00	29.792 
13:15	51.4	51.4	51.4	73	43.0	2	7	248	0.00	29.793 
13:20	51.3	51.3	51.3	73	42.9	2	6	248	0.00	29.793 
13:25	51.6	51.6	51.6	73	43.2	2	5	248	0.00	29.793 
13:30	51.4	51.4	51.4	72	42.7	3	6	292	0.00	29.800 
13:35	51.4	51.4	51.4	72	42.7	3	5	248	0.00	29.800 
13:40	51.4	51.4	51.4	73	43.0	2	5	292	0.00	29.800 
13:45	51.7	51.7	51.7	73	43.3	2	5	292	0.00	29.799 
13:50	51.7	51.7	51.7	72	43.0	3	6	270	0.00	29.799 
13:55	51.9	51.9	51.9	71	42.8	3	6	270	0.00	29.799 
14:00	52.2	52.2	52.2	71	43.1	2	5	248	0.00	29.803 
14:05	51.9	51.9	51.9	70	42.4	2	6	270	0.00	29.803 
14:10	51.9	51.9	51.9	72	43.2	1	4	292	0.00	29.803 
14:15	52.3	52.3	52.3	69	42.4	2	4	248	0.00	29.804 
14:20	52.6	52.6	52.6	68	42.3	2	4	270	0.00	29.804 
14:25	52.9	52.9	52.9	67	42.2	2	7	248	0.00	29.804 
14:30	52.5	52.5	52.5	67	41.9	2	4	270	0.00	29.806 
14:35	52.5	52.5	52.5	67	41.9	2	4	292	0.00	29.806 
14:40	52.3	52.3	52.3	66	41.3	3	5	270	0.00	29.806 
14:45	52.6	52.6	52.6	66	41.6	3	7	270	0.00	29.803 
14:50	52.9	52.9	52.9	65	41.5	3	7	292	0.00	29.803 
14:55	53.3	53.3	53.3	65	41.8	2	6	270	0.00	29.803 
15:00	53.6	53.6	53.6	64	41.7	2	6	248	0.00	29.801 
15:05	53.6	53.6	53.6	63	41.3	2	5	270	0.00	29.801 
15:10	53.5	53.5	53.5	62	40.8	3	6	248	0.00	29.801 
15:15	53.3	53.3	53.3	64	41.4	2	5	248	0.00	29.804 
15:20	53.9	53.9	53.9	64	42.0	2	6	248	0.00	29.804 
15:25	54.2	54.2	54.2	61	41.0	3	6	248	0.00	29.804 
15:30	53.8	53.8	53.8	61	40.7	2	4	248	0.00	29.804 
15:35	53.8	53.8	53.8	63	41.5	3	6	270	0.00	29.804 
15:40	54.1	54.1	54.1	62	41.4	2	4	248	0.00	29.804 
15:45	54.2	54.2	54.2	60	40.6	3	6	292	0.00	29.812 
15:50	54.5	54.5	54.5	62	41.7	1	4	338	0.00	29.812 
15:55	54.5	54.5	54.5	61	41.3	1	2	248	0.00	29.812 
16:00	54.1	54.1	54.1	61	41.0	2	4	270	0.00	29.817 
16:05	54.4	54.4	54.4	62	41.7	1	4	248	0.00	29.817 
16:10	54.7	54.7	54.7	60	41.1	2	5	270	0.00	29.817 
16:15	55.0	55.0	55.0	58	40.5	3	6	270	0.00	29.815 
16:20	54.7	54.7	54.7	60	41.1	2	4	270	0.00	29.815 
16:25	54.5	54.5	54.5	59	40.5	2	6	270	0.00	29.815 
16:30	53.9	53.9	53.9	60	40.3	2	5	248	0.00	29.819 
16:35	53.9	53.9	53.9	61	40.8	1	5	248	0.00	29.819 
16:40	54.2	54.2	54.2	61	41.0	2	5	292	0.00	29.819 
16:45	54.4	54.4	54.4	61	41.2	2	5	248	0.00	29.820 
16:50	54.5	54.5	54.5	60	40.9	2	6	248	0.00	29.820 
16:55	54.5	54.5	54.5	60	40.9	2	4	248	0.00	29.820 
17:00	54.4	54.4	54.4	60	40.8	1	5	248	0.00	29.828 
17:05	54.1	54.1	54.1	59	40.1	2	5	248	0.00	29.828 
17:10	53.8	53.8	53.8	60	40.2	2	5	270	0.00	29.828 
17:15	53.6	53.6	53.6	60	40.1	1	4	270	0.00	29.835 
17:20	53.5	53.5	53.5	61	40.4	2	6	248	0.00	29.835 
17:25	53.3	53.3	53.3	61	40.2	1	4	248	0.00	29.835 
17:30	53.2	53.2	53.2	60	39.7	2	4	248	0.00	29.840 
17:35	53.1	53.1	53.1	61	40.0	2	5	270	0.00	29.840 
17:40	53.1	53.1	53.1	61	40.0	1	4	248	0.00	29.840 
17:45	53.1	53.1	53.1	62	40.4	1	3	248	0.00	29.842 
17:50	52.9	52.9	52.9	62	40.2	2	4	248	0.00	29.842 
17:55	52.8	52.8	52.8	62	40.1	2	5	248	0.00	29.842 
18:00	52.8	52.8	52.8	63	40.6	1	4	270	0.00	29.849 
18:05	52.6	52.6	52.6	63	40.4	1	4	270	0.00	29.849 
18:10	52.5	52.5	52.5	64	40.7	1	4	248	0.00	29.849 
18:15	52.3	52.3	52.3	64	40.5	1	4	248	0.00	29.855 
18:20	52.3	52.3	52.3	64	40.5	1	4	248	0.00	29.855 
18:25	52.3	52.3	52.3	64	40.5	2	4	248	0.00	29.855 
18:30	52.2	52.2	52.2	65	40.8	1	3	248	0.00	29.865 
18:35	52.2	52.2	52.2	65	40.8	1	4	248	0.00	29.865 
18:40	52.2	52.2	52.2	65	40.8	1	4	270	0.00	29.865 
18:45	52.0	52.0	52.0	66	41.0	1	2	270	0.00	29.867 
18:50	51.9	51.9	51.9	66	40.9	1	3	270	0.00	29.867 
18:55	51.7	51.7	51.7	66	40.7	1	3	270	0.00	29.867 
19:00	51.7	51.7	51.7	66	40.7	1	4	270	0.00	29.870 
19:05	51.7	51.7	51.7	67	41.1	1	4	270	0.00	29.870 
19:10	51.6	51.6	51.6	67	41.0	1	5	270	0.00	29.870 
19:15	51.6	51.6	51.6	67	41.0	1	4	270	0.00	29.876 
19:20	51.6	51.6	51.6	67	41.0	0	2	248	0.00	29.876 
19:25	51.6	51.6	51.6	67	41.0	1	4	248	0.00	29.876 
19:30	51.6	51.6	51.6	67	41.0	0	2	248	0.00	29.882 
19:35	51.6	51.6	51.6	68	41.4	0	1	248	0.00	29.882 
19:40	51.4	51.4	51.4	68	41.2	0	1	248	0.00	29.882 
19:45	51.4	51.4	51.4	68	41.2	0	2	248	0.00	29.888 
19:50	51.4	51.4	51.4	68	41.2	0	1	248	0.00	29.888 
19:55	51.4	51.4	51.4	68	41.2	0	1	248	0.00	29.888 
20:00	51.3	51.3	51.3	68	41.1	0	1	248	0.00	29.895 
20:05	51.3	51.3	51.3	68	41.1	0	1	248	0.00	29.895 
20:10	51.3	51.3	51.3	68	41.1	0	2	248	0.00	29.895 
20:15	51.3	51.3	51.3	68	41.1	0	3	248	0.00	29.896 
20:20	51.3	51.3	51.3	68	41.1	0	2	248	0.00	29.896 
20:25	51.3	51.3	51.3	67	40.7	0	2	248	0.00	29.896 
20:30	51.3	51.3	51.3	67	40.7	0	2	248	0.00	29.898 
20:35	51.3	51.3	51.3	67	40.7	0	1	248	0.00	29.898 
20:40	51.3	51.3	51.3	67	40.7	0	2	248	0.00	29.898 
20:45	51.1	51.1	51.1	68	40.9	0	1	248	0.00	29.898 
20:50	51.1	51.1	51.1	68	40.9	0	3	248	0.00	29.898 
20:55	51.1	51.1	51.1	68	40.9	0	1	248	0.00	29.898 
21:00	51.1	51.1	51.1	68	40.9	0	2	248	0.00	29.904 
21:05	51.0	51.0	51.0	68	40.8	0	1	248	0.00	29.904 
21:10	51.0	51.0	51.0	68	40.8	0	2	248	0.00	29.904 
21:15	51.0	51.0	51.0	68	40.8	0	1	248	0.00	29.913 
21:20	51.0	51.0	51.0	68	40.8	0	1	248	0.00	29.913 
21:25	50.8	50.8	50.8	68	40.6	0	1	248	0.00	29.913 
21:30	50.8	50.8	50.8	69	41.0	0	1	248	0.00	29.918 
21:35	50.7	50.7	50.7	69	40.9	0	4	248	0.00	29.918 
21:40	50.7	50.7	50.7	69	40.9	0	2	248	0.00	29.918 
21:45	50.7	50.7	50.7	69	40.9	0	1	248	0.00	29.926 
21:50	50.7	50.7	50.7	68	40.5	0	1	248	0.00	29.926 
21:55	50.7	50.7	50.7	69	40.9	0	1	248	0.00	29.926 
22:00	50.7	50.7	50.7	69	40.9	0	1	248	0.00	29.926 
22:05	50.7	50.7	50.7	69	40.9	0	2	248	0.00	29.926 
22:10	50.5	50.5	50.5	69	40.7	0	2	248	0.00	29.926 
22:15	50.5	50.5	50.5	69	40.7	0	3	248	0.00	29.927 
22:20	50.4	50.4	50.4	69	40.6	0	1	248	0.00	29.927 
22:25	50.4	50.4	50.4	70	41.0	0	2	248	0.00	29.927 
22:30	50.2	50.2	50.2	70	40.8	0	1	248	0.00	29.931 
22:35	50.2	50.2	50.2	70	40.8	0	2	248	0.00	29.931 
22:40	50.2	50.2	50.2	70	40.8	0	1	248	0.00	29.931 
22:45	50.1	50.1	50.1	71	41.1	0	1	248	0.00	29.932 
22:50	50.1	50.1	50.1	71	41.1	0	2	248	0.00	29.932 
22:55	50.1	50.1	50.1	71	41.1	0	2	248	0.00	29.932 
23:00	50.1	50.1	50.1	71	41.1	0	1	248	0.00	29.938 
23:05	50.1	50.1	50.1	71	41.1	0	3	248	0.00	29.938 
23:10	50.1	50.1	50.1	71	41.1	0	2	248	0.00	29.938 
23:15	50.1	50.1	50.1	71	41.1	0	2	270	0.00	29.942 
23:20	49.9	49.9	49.9	71	40.9	0	1	270	0.00	29.942 
23:25	49.9	49.9	49.9	71	40.9	0	2	270	0.00	29.942 
23:30	49.8	49.8	49.8	72	41.1	0	1	270	0.00	29.945 
23:35	49.6	49.6	49.6	72	40.9	0	2	270	0.00	29.945 
23:40	49.6	49.6	49.6	72	40.9	0	3	270	0.00	29.945 
23:45	49.5	49.5	49.5	72	40.9	0	3	270	0.00	29.945 
23:50	49.4	49.4	49.4	73	41.1	0	1	270	0.00	29.945 
23:55	49.1	49.1	49.1	73	40.8	0	1	270	0.00	29.945 

CoCoRaHS
IN-AL-39
A2 Web Hosting
Creative Commons License
GoDaddy
search engine by freefind advanced

loaded 2018-11-15 17:44:27 • last modified 2010-11-18 10:43:29
Privacy PolicyDisclaimer
• wx.awcolley.com is powered by PmWiki v.2002016 •
• all content (unless otherwise noted) © 2018 A W Colley